Time;durP1;ratioP1;P1;durP2;ratioP2;P2;SDS_P1;SDS_P2;PMS_P1;PMS_P2;Temp;Humidity;BMP_temperature;BMP_pressure;BME280_temperature;BME280_humidity;BME280_pressure;Samples;Min_cycle;Max_cycle;Signal;HPM_P1;HPM_P2
2021/05/22 00:06:52;;;;;;;1.75;1.10;;;;;;;16.13;55.71;99184.94;4966034;26;109665;-88
2021/05/22 00:13:15;;;;;;;2.03;1.20;;;;;;;15.95;55.25;99189.44;4031662;27;33874;-87
2021/05/22 00:15:49;;;;;;;2.53;1.17;;;;;;;15.68;56.02;99186.28;4490990;27;33828;-89
2021/05/22 00:18:24;;;;;;;2.87;1.10;;;;;;;15.88;55.35;99183.25;4638454;27;34480;-88
2021/05/22 00:21:00;;;;;;;1.87;1.40;;;;;;;16.04;54.39;99182.56;4747263;27;33880;-87
2021/05/22 00:27:08;;;;;;;;;;;;;;;15.85;54.91;99176.41;4910670;27;34577;31
2021/05/22 00:30:06;;;;;;;3.50;1.00;;;;;;;15.68;57.18;99189.84;4442230;27;33188;-87
2021/05/22 00:33:02;;;;;;;1.83;1.60;;;;;;;15.59;57.35;99184.97;4576272;27;33811;31
2021/05/22 00:42:44;;;;;;;3.75;1.40;;;;;;;15.66;57.00;99164.75;4455286;27;33164;-87
2021/05/22 00:45:20;;;;;;;3.88;1.67;;;;;;;15.65;57.08;99167.69;4590746;27;33741;31
2021/05/22 00:47:55;;;;;;;1.87;1.08;;;;;;;15.35;57.49;99160.41;4613902;27;33931;-87
2021/05/22 00:54:10;;;;;;;2.95;1.25;;;;;;;15.16;59.06;99165.09;4619485;27;33869;31
2021/05/22 00:56:45;;;;;;;2.05;1.40;;;;;;;15.03;57.82;99165.28;4622762;27;33694;-87
2021/05/22 00:59:32;;;;;;;1.60;1.20;;;;;;;15.19;58.72;99159.19;4604607;27;34570;-91
2021/05/22 01:02:21;;;;;;;5.02;1.48;;;;;;;15.40;58.41;99154.28;4769670;27;35531;31
2021/05/22 01:04:58;;;;;;;2.00;1.27;;;;;;;15.39;58.25;99158.03;4541032;27;33386;-87
2021/05/22 01:07:33;;;;;;;1.27;0.90;;;;;;;15.50;56.47;99154.53;4517463;27;33741;-87
2021/05/22 01:10:34;;;;;;;1.92;0.95;;;;;;;15.24;57.64;99151.16;4512171;27;34407;31
2021/05/22 01:16:48;;;;;;;2.97;1.15;;;;;;;15.23;56.78;99159.56;4438218;27;33574;-87
2021/05/22 01:23:13;;;;;;;2.37;1.40;;;;;;;15.05;56.91;99141.41;4509750;27;20151;-95
2021/05/22 01:29:47;;;;;;;1.98;1.15;;;;;;;14.77;56.90;99140.91;4354825;27;33864;-88
2021/05/22 01:32:21;;;;;;;1.30;0.93;;;;;;;14.42;57.60;99140.72;4595439;27;34055;-94
2021/05/22 01:34:55;;;;;;;0.90;0.80;;;;;;;14.18;56.99;99131.56;4394349;27;35958;-88
2021/05/22 01:37:44;;;;;;;4.00;1.40;;;;;;;14.26;57.77;99123.94;4496185;27;33307;31
2021/05/22 01:40:18;;;;;;;9.52;1.27;;;;;;;14.52;57.13;99123.84;4440008;27;33118;-87
2021/05/22 01:42:54;;;;;;;4.40;1.37;;;;;;;14.67;56.53;99134.34;4357026;32;32555;-87
2021/05/22 01:49:17;;;;;;;2.87;1.00;;;;;;;14.57;56.67;99129.44;4462481;27;34176;-88
2021/05/22 01:55:33;;;;;;;1.08;0.80;;;;;;;15.11;54.81;99124.97;4581123;27;34483;-87
2021/05/22 01:58:31;;;;;;;1.30;0.90;;;;;;;15.09;54.52;99129.81;4529631;27;33880;31
2021/05/22 02:01:05;;;;;;;1.92;1.10;;;;;;;14.97;54.92;99118.88;4417429;27;33210;-88
2021/05/22 02:03:46;;;;;;;2.05;1.00;;;;;;;14.95;54.98;99126.44;4375642;27;33517;-87
2021/05/22 02:06:28;;;;;;;2.83;0.57;;;;;;;15.22;53.71;99134.22;4609464;27;32866;-87
2021/05/22 02:09:03;;;;;;;2.78;1.08;;;;;;;14.98;54.02;99125.16;4461869;27;33789;-88
2021/05/22 02:12:21;;;;;;;2.33;1.10;;;;;;;14.80;54.81;99128.75;4459263;27;34554;-91
2021/05/22 02:21:14;;;;;;;2.30;0.80;;;;;;;15.18;53.40;99130.31;4648118;27;34118;-88
2021/05/22 02:24:10;;;;;;;2.30;1.00;;;;;;;15.05;54.08;99133.22;4423120;27;34757;-96
2021/05/22 02:27:38;;;;;;;0.75;0.70;;;;;;;14.98;53.88;99136.03;4536325;27;35380;31
2021/05/22 02:30:14;;;;;;;1.60;1.30;;;;;;;15.08;54.42;99128.16;4658660;27;33721;-87
2021/05/22 02:33:11;;;;;;;4.20;1.23;;;;;;;14.73;54.79;99133.44;4498074;27;33201;-87
2021/05/22 02:35:47;;;;;;;2.30;1.27;;;;;;;14.69;54.99;99138.53;4476473;27;33825;-87
2021/05/22 02:38:42;;;;;;;1.17;0.82;;;;;;;14.84;54.78;99135.41;4649926;27;32997;-88
2021/05/22 02:41:39;;;;;;;1.40;1.00;;;;;;;14.95;54.55;99136.50;4587924;27;33480;31
2021/05/22 02:44:12;;;;;;;1.33;0.93;;;;;;;14.97;54.11;99129.78;4560123;27;33010;-86
2021/05/22 02:46:48;;;;;;;2.40;0.98;;;;;;;14.72;54.99;99138.06;4625758;27;32990;-87
2021/05/22 02:49:41;;;;;;;1.23;1.00;;;;;;;14.83;54.78;99144.59;4725681;27;32356;-87
2021/05/22 02:53:01;;;;;;;1.00;0.90;;;;;;;15.08;53.79;99130.88;4324822;27;20099;31
2021/05/22 02:55:34;;;;;;;1.30;0.90;;;;;;;14.54;55.40;99136.16;4331752;33;33222;-87
2021/05/22 02:58:20;;;;;;;2.05;1.10;;;;;;;14.60;55.17;99146.13;4434975;27;34938;-86
2021/05/22 03:01:10;;;;;;;1.80;1.37;;;;;;;14.54;55.29;99152.47;4586751;27;33481;-87
2021/05/22 03:03:58;;;;;;;5.53;1.50;;;;;;;14.64;55.35;99158.25;4618301;27;31515;-87
2021/05/22 03:06:46;;;;;;;1.20;1.05;;;;;;;14.90;54.77;99139.09;4644634;27;35308;31
2021/05/22 03:09:19;;;;;;;1.37;0.90;;;;;;;14.83;55.47;99144.59;4566641;27;34965;-87
2021/05/22 03:17:47;;;;;;;1.85;0.95;;;;;;;14.48;55.95;99153.38;4627534;27;33308;-87
2021/05/22 03:20:38;;;;;;;1.60;0.73;;;;;;;14.28;56.00;99154.44;4463948;27;33961;31
2021/05/22 03:23:22;;;;;;;1.23;0.82;;;;;;;14.28;56.13;99140.84;4595624;27;33184;31
2021/05/22 03:26:01;;;;;;;6.00;1.20;;;;;;;14.28;55.98;99137.28;4628415;27;34513;31
2021/05/22 03:32:10;;;;;;;3.87;1.15;;;;;;;14.48;55.86;99126.19;4373068;27;34108;-96
2021/05/22 03:38:28;;;;;;;0.98;0.85;;;;;;;14.24;56.10;99139.66;4512495;27;34013;-90
2021/05/22 03:41:02;;;;;;;1.37;1.02;;;;;;;14.61;55.31;99136.94;4592219;27;32283;-88
2021/05/22 03:43:45;;;;;;;1.60;0.80;;;;;;;14.28;56.40;99137.28;4579494;27;34892;31
2021/05/22 03:46:32;;;;;;;1.95;1.27;;;;;;;14.76;55.60;99150.16;4401621;27;33028;-88
2021/05/22 03:49:33;;;;;;;1.25;1.10;;;;;;;14.49;56.13;99146.91;4478975;27;33307;-96
2021/05/22 03:55:54;;;;;;;5.03;1.30;;;;;;;14.52;55.70;99156.47;4255737;27;37999;-87
2021/05/22 03:58:53;;;;;;;2.35;0.85;;;;;;;14.63;55.00;99151.12;4386039;27;33446;-90
2021/05/22 04:01:30;;;;;;;1.70;1.02;;;;;;;14.94;54.94;99156.59;4434868;27;33106;-89
2021/05/22 04:07:53;;;;;;;2.00;0.80;;;;;;;14.40;56.26;99161.84;4333739;27;37203;-95
2021/05/22 04:10:54;;;;;;;2.97;1.05;;;;;;;14.82;54.68;99170.16;4512036;27;34228;31
2021/05/22 04:13:34;;;;;;;1.50;1.00;;;;;;;15.10;54.39;99169.56;4487578;27;33000;31
2021/05/22 04:16:08;;;;;;;2.90;0.90;;;;;;;15.03;54.86;99165.28;4513308;27;33622;-88
2021/05/22 04:18:42;;;;;;;2.58;0.95;;;;;;;15.07;54.29;99166.47;4420938;27;34960;-88
2021/05/22 04:28:31;;;;;;;1.23;1.00;;;;;;;14.27;55.79;99168.25;4307773;27;36151;-87
2021/05/22 04:31:04;;;;;;;3.03;1.05;;;;;;;14.97;53.82;99173.31;4401938;27;32616;-93
2021/05/22 04:37:27;;;;;;;3.65;1.55;;;;;;;14.95;54.12;99167.25;4490961;27;33587;31
2021/05/22 04:43:45;;;;;;;3.97;1.35;;;;;;;15.27;52.88;99177.91;4366507;27;35864;-87
2021/05/22 04:46:20;;;;;;;4.18;1.25;;;;;;;15.32;52.61;99191.66;4363429;32;33489;-87
2021/05/22 04:48:54;;;;;;;3.85;1.20;;;;;;;15.29;52.53;99191.28;4381038;32;32768;-87
2021/05/22 04:51:32;;;;;;;2.10;1.30;;;;;;;15.38;52.72;99194.53;4398890;27;35696;31
2021/05/22 04:54:29;;;;;;;2.72;1.20;;;;;;;15.35;52.53;99201.25;4345019;33;35225;-96
2021/05/22 04:57:06;;;;;;;2.00;1.17;;;;;;;15.22;52.61;99199.53;4338508;32;33943;-96
2021/05/22 05:06:29;;;;;;;1.45;1.12;;;;;;;15.18;52.68;99211.97;4351469;33;33269;-92
2021/05/22 05:12:44;;;;;;;2.85;1.00;;;;;;;15.04;53.05;99227.62;4454521;27;20110;-91
2021/05/22 05:16:01;;;;;;;2.47;1.00;;;;;;;15.34;52.75;99230.38;4242721;33;35354;-87
2021/05/22 05:18:34;;;;;;;2.20;1.00;;;;;;;15.46;51.81;99224.13;4498588;27;33576;-87
2021/05/22 05:27:56;;;;;;;1.52;1.05;;;;;;;15.55;53.24;99233.63;4459628;28;33975;-86
2021/05/22 05:34:18;;;;;;;2.00;1.07;;;;;;;15.88;52.10;99226.84;4583321;28;33337;31
2021/05/22 05:36:54;;;;;;;2.92;1.23;;;;;;;15.95;51.80;99221.31;4235244;33;34696;-96
2021/05/22 05:43:16;;;;;;;2.90;1.12;;;;;;;15.65;54.20;99216.72;4317311;28;32622;-86
2021/05/22 06:00:19;;;;;;;3.40;1.55;;;;;;;16.27;58.83;99234.59;4432533;28;20125;-87
2021/05/22 06:02:52;;;;;;;3.12;1.20;;;;;;;16.28;55.82;99228.09;4253153;33;33011;-88
2021/05/22 06:05:30;;;;;;;3.42;1.58;;;;;;;15.71;58.79;99222.06;4804803;28;34017;31
2021/05/22 06:08:04;;;;;;;3.50;1.60;;;;;;;15.83;57.11;99251.25;4260752;28;32853;-88
2021/05/22 06:10:47;;;;;;;4.45;1.95;;;;;;;15.91;60.38;99240.00;4258090;28;33565;31
2021/05/22 06:16:48;;;;;;;6.97;2.42;;;;;;;16.05;62.97;99255.09;4304041;28;20485;-86
2021/05/22 06:19:22;;;;;;;8.10;2.42;;;;;;;15.96;63.87;99264.69;4316629;28;33712;-86
2021/05/22 06:26:07;;;;;;;11.90;2.60;;;;;;;16.31;63.61;99260.31;4890102;28;20923;31
2021/05/22 06:29:29;;;;;;;7.03;1.83;;;;;;;16.26;63.54;99260.19;4635184;28;33106;31
2021/05/22 06:32:43;;;;;;;6.23;1.67;;;;;;;16.48;62.58;99269.47;4474449;28;32826;31
2021/05/22 06:35:29;;;;;;;5.03;2.05;;;;;;;16.70;61.62;99266.94;4574176;28;32551;31
2021/05/22 06:38:24;;;;;;;5.47;1.77;;;;;;;16.96;59.47;99267.53;4468527;28;35023;-86
2021/05/22 06:40:58;;;;;;;6.15;1.85;;;;;;;17.35;58.43;99275.13;4326446;28;34322;-86
2021/05/22 06:43:31;;;;;;;5.50;2.03;;;;;;;17.59;58.27;99278.56;4270214;28;33419;-86
2021/05/22 06:48:56;;;;;;;3.12;1.98;;;;;;;18.10;57.08;99284.16;4310436;28;31576;-86
2021/05/22 06:51:31;;;;;;;1.73;1.27;;;;;;;18.29;55.12;99276.53;4342113;28;34716;-90
2021/05/22 06:57:30;;;;;;;2.60;1.23;;;;;;;18.21;54.80;99290.63;4779859;28;33008;31
2021/05/22 07:00:05;;;;;;;3.25;1.25;;;;;;;18.48;52.72;99286.13;4238068;33;33268;-96
2021/05/22 07:02:38;;;;;;;4.00;1.27;;;;;;;17.79;54.30;99289.88;4231889;33;34471;-86
2021/05/22 07:05:12;;;;;;;1.48;1.15;;;;;;;17.91;54.69;99297.25;4226446;33;34680;-86
2021/05/22 07:08:02;;;;;;;2.45;1.20;;;;;;;18.00;54.10;99296.56;4625585;28;33604;-90
2021/05/22 07:10:55;;;;;;;5.65;1.75;;;;;;;17.72;55.45;99296.59;4537454;28;31487;31
2021/05/22 07:13:54;;;;;;;9.55;1.77;;;;;;;17.95;53.42;99292.94;4242087;28;33089;31
2021/05/22 07:20:02;;;;;;;5.45;1.85;;;;;;;17.73;55.41;99290.88;4217889;28;20769;-88
2021/05/22 07:22:39;;;;;;;4.45;1.60;;;;;;;17.30;55.18;99286.78;4242908;33;32603;-88
2021/05/22 07:25:39;;;;;;;3.00;1.62;;;;;;;16.77;55.54;99281.28;4455625;28;20089;-87
2021/05/22 07:28:15;;;;;;;4.80;1.80;;;;;;;17.04;55.67;99272.62;4242098;33;33780;-87
2021/05/22 07:30:48;;;;;;;4.05;1.65;;;;;;;17.13;54.70;99278.53;4230007;33;33575;-92
2021/05/22 07:33:22;;;;;;;3.45;1.60;;;;;;;17.25;53.74;99289.41;4234876;33;34285;-85
2021/05/22 07:35:55;;;;;;;3.12;1.27;;;;;;;17.30;54.98;99286.78;4231621;33;35106;-85
2021/05/22 07:38:29;;;;;;;3.97;1.65;;;;;;;17.29;53.64;99285.13;4235518;33;32541;-96
2021/05/22 07:41:15;;;;;;;2.80;1.27;;;;;;;16.96;54.94;99278.47;4242479;33;34607;-88
2021/05/22 07:43:51;;;;;;;7.25;1.48;;;;;;;17.10;54.14;99288.03;4314537;28;33379;-88
2021/05/22 07:46:39;;;;;;;1.37;1.00;;;;;;;17.15;53.23;99289.22;4352867;28;34175;-87
2021/05/22 07:49:46;;;;;;;1.30;0.90;;;;;;;17.21;52.45;99301.88;4295212;28;33932;-87
2021/05/22 07:52:30;;;;;;;3.28;0.90;;;;;;;16.88;53.51;99306.94;4381931;28;33576;-93
2021/05/22 07:55:24;;;;;;;1.10;0.73;;;;;;;17.09;53.77;99310.94;4689283;28;32319;-94
2021/05/22 08:01:24;;;;;;;2.35;1.27;;;;;;;17.17;52.96;99297.97;4316976;28;33958;-96
2021/05/22 08:04:03;;;;;;;2.10;1.25;;;;;;;16.71;54.47;99301.34;4429117;28;33783;-92
2021/05/22 08:07:05;;;;;;;5.32;1.73;;;;;;;16.96;54.04;99304.91;4275115;28;33053;-87
2021/05/22 08:09:46;;;;;;;2.53;1.17;;;;;;;16.80;53.57;99303.72;4352586;28;33802;31
2021/05/22 08:12:30;;;;;;;2.12;0.90;;;;;;;17.03;53.66;99309.16;4341487;28;33958;-86
2021/05/22 08:15:07;;;;;;;1.62;0.93;;;;;;;17.34;52.54;99314.44;4290521;28;33203;-89
2021/05/22 08:17:41;;;;;;;4.15;1.02;;;;;;;16.68;53.51;99317.38;4324413;28;34048;-87
2021/05/22 08:26:54;;;;;;;1.98;1.00;;;;;;;17.05;52.05;99326.16;4355806;28;36755;-91
2021/05/22 08:30:20;;;;;;;2.35;0.95;;;;;;;17.08;52.56;99322.94;4423769;28;20118;-90
2021/05/22 08:33:14;;;;;;;1.50;0.80;;;;;;;17.24;52.77;99315.06;4295238;28;36840;-92
2021/05/22 08:39:06;;;;;;;1.50;1.00;;;;;;;17.57;52.21;99321.72;4263532;33;33988;-89
2021/05/22 08:41:42;;;;;;;4.43;1.00;;;;;;;17.97;50.37;99329.06;4279551;28;32359;-94
2021/05/22 08:44:49;;;;;;;1.65;0.73;;;;;;;17.76;49.86;99334.09;4264170;28;32565;-91
2021/05/22 08:47:23;;;;;;;3.67;0.60;;;;;;;17.17;50.10;99331.59;4247888;33;35004;-92
2021/05/22 08:49:58;;;;;;;2.45;0.85;;;;;;;17.23;50.18;99330.63;4253920;33;33522;-95
2021/05/22 08:56:27;;;;;;;2.15;0.73;;;;;;;17.64;50.25;99315.03;4298359;28;34423;-86
2021/05/22 08:59:01;;;;;;;4.05;0.70;;;;;;;18.45;48.79;99313.16;4298195;28;33350;-88
2021/05/22 09:01:37;;;;;;;1.35;0.80;;;;;;;18.77;46.89;99315.28;4262911;33;33605;-94
2021/05/22 09:04:39;;;;;;;3.87;0.70;;;;;;;18.65;47.14;99320.84;4279853;28;33201;-96
2021/05/22 09:07:22;;;;;;;4.67;0.97;;;;;;;18.50;46.47;99324.19;4313829;28;34618;-95
2021/05/22 09:10:16;;;;;;;1.25;0.68;;;;;;;18.95;45.94;99319.66;4250050;33;33307;-86
2021/05/22 09:12:51;;;;;;;3.78;1.20;;;;;;;18.44;47.13;99326.03;4236427;33;34163;-87
2021/05/22 09:15:52;;;;;;;1.00;0.60;;;;;;;18.00;46.65;99323.09;4314255;28;34005;-90
2021/05/22 09:19:05;;;;;;;1.05;0.60;;;;;;;18.12;46.99;99328.50;4238890;33;34388;-95
2021/05/22 09:21:56;;;;;;;2.28;0.60;;;;;;;19.08;45.98;99332.19;4356447;28;34602;-94
2021/05/22 09:25:00;;;;;;;1.58;0.60;;;;;;;18.94;45.16;99327.06;4265177;33;20583;-88
2021/05/22 09:28:00;;;;;;;3.22;0.98;;;;;;;18.50;46.17;99332.38;4293959;28;31741;-86
2021/05/22 09:30:39;;;;;;;1.40;0.50;;;;;;;18.48;45.13;99343.59;4403829;28;33561;-93
2021/05/22 09:33:28;;;;;;;0.90;0.52;;;;;;;18.19;46.08;99356.53;3937856;28;32416;-90
2021/05/22 09:36:24;;;;;;;1.33;0.45;;;;;;;18.29;46.64;99358.59;4248521;33;33391;-87
2021/05/22 09:38:58;;;;;;;4.22;1.42;;;;;;;18.73;46.93;99344.22;4262908;33;34181;-90
2021/05/22 09:41:38;;;;;;;4.12;1.05;;;;;;;18.23;47.08;99356.84;4285435;28;33702;-94
2021/05/22 09:44:40;;;;;;;2.45;0.60;;;;;;;18.40;46.98;99370.53;4168877;33;34663;-92
2021/05/22 09:47:49;;;;;;;3.87;0.88;;;;;;;18.22;47.25;99357.91;4304314;28;32958;-89
2021/05/22 09:53:37;;;;;;;2.73;0.73;;;;;;;17.89;48.75;99367.69;4279522;28;36329;-89
2021/05/22 09:56:18;;;;;;;0.95;0.40;;;;;;;18.05;48.74;99368.84;4256522;28;34841;-88
2021/05/22 09:59:01;;;;;;;1.85;0.62;;;;;;;17.89;49.53;99381.34;4219052;34;32388;-89
2021/05/22 10:02:05;;;;;;;3.47;1.05;;;;;;;17.90;49.12;99380.31;4221495;33;34218;-88
2021/05/22 10:05:34;;;;;;;3.50;0.80;;;;;;;17.22;54.08;99388.22;4325232;28;20062;-93
2021/05/22 10:08:22;;;;;;;0.98;0.75;;;;;;;17.11;56.77;99393.44;4256141;28;33051;-96
2021/05/22 10:11:31;;;;;;;4.50;1.10;;;;;;;16.41;58.73;99395.03;4264266;28;34809;-90
2021/05/22 10:17:32;;;;;;;2.70;1.10;;;;;;;16.44;60.33;99409.25;4317274;28;32282;-95
2021/05/22 10:20:13;;;;;;;2.40;0.87;;;;;;;16.23;62.72;99409.56;4376086;28;33835;31
2021/05/22 10:22:47;;;;;;;6.20;1.12;;;;;;;16.22;61.56;99418.78;4435691;28;33524;-87
2021/05/22 10:25:21;;;;;;;4.93;1.05;;;;;;;15.83;62.94;99410.12;4211820;33;33137;-87
2021/05/22 10:28:08;;;;;;;2.00;0.95;;;;;;;16.11;62.69;99410.56;4202989;33;33638;-95
2021/05/22 10:31:24;;;;;;;2.65;1.20;;;;;;;15.70;63.22;99419.28;4197835;34;20158;-87
2021/05/22 10:33:57;;;;;;;4.80;1.17;;;;;;;15.79;64.38;99419.81;4191598;34;33249;-86
2021/05/22 10:36:56;;;;;;;2.45;1.30;;;;;;;15.44;65.01;99417.69;4218131;33;34203;-86
2021/05/22 10:39:44;;;;;;;1.35;0.95;;;;;;;15.49;65.56;99423.31;4234675;33;34713;-87
2021/05/22 10:42:38;;;;;;;3.28;1.02;;;;;;;15.63;63.38;99418.53;4231545;33;32299;-96
2021/05/22 10:45:26;;;;;;;1.77;1.00;;;;;;;15.84;63.13;99400.91;4228272;33;33361;-87
2021/05/22 10:48:19;;;;;;;4.18;1.10;;;;;;;15.73;63.83;99414.44;4204990;33;35516;-96
2021/05/22 10:50:53;;;;;;;2.15;1.10;;;;;;;16.12;63.74;99412.25;4214554;34;34402;-96
2021/05/22 10:54:00;;;;;;;1.80;1.10;;;;;;;16.53;63.89;99407.88;4232495;33;35560;-88
2021/05/22 10:57:19;;;;;;;2.42;1.12;;;;;;;16.17;62.62;99423.31;4235732;33;33686;-89
2021/05/22 11:00:16;;;;;;;1.27;0.73;;;;;;;16.38;62.09;99427.41;4224749;33;33972;-96
2021/05/22 11:02:52;;;;;;;1.70;0.75;;;;;;;15.97;61.79;99421.69;4255112;33;34327;-96
2021/05/22 11:05:27;;;;;;;3.90;0.80;;;;;;;16.24;61.91;99427.59;4230908;33;34048;-96
2021/05/22 11:08:27;;;;;;;2.17;0.90;;;;;;;15.58;63.73;99436.59;4245394;33;34284;-96
2021/05/22 11:11:32;;;;;;;1.58;0.82;;;;;;;16.11;63.16;99437.84;4226289;33;34710;-90
2021/05/22 11:14:35;;;;;;;1.83;0.90;;;;;;;16.34;63.00;99448.00;4227633;33;34971;-89
2021/05/22 11:17:21;;;;;;;2.53;1.42;;;;;;;16.19;62.95;99435.63;4239185;33;35029;-96
2021/05/22 11:20:32;;;;;;;5.10;1.10;;;;;;;16.57;62.01;99434.44;4046070;33;35722;-88
2021/05/22 11:23:09;;;;;;;2.85;0.70;;;;;;;16.74;62.82;99440.03;4230334;33;32901;-96
2021/05/22 11:26:53;;;;;;;1.58;0.43;;;;;;;16.67;63.06;99436.56;4075722;33;35127;-88
2021/05/22 11:29:55;;;;;;;1.05;0.30;;;;;;;16.00;60.23;99453.09;4245601;33;36220;-88
2021/05/22 11:32:50;;;;;;;1.52;0.30;;;;;;;15.69;61.09;99449.47;4217939;33;32438;-89
2021/05/22 11:35:48;;;;;;;0.40;0.40;;;;;;;15.71;61.32;99452.78;3914075;33;34745;-90
2021/05/22 11:38:21;;;;;;;1.48;0.57;;;;;;;15.46;60.86;99458.31;4217366;33;33987;-90
2021/05/22 11:41:00;;;;;;;1.27;0.40;;;;;;;15.81;61.61;99457.75;4213670;34;34426;-94
2021/05/22 11:43:34;;;;;;;0.52;0.20;;;;;;;15.94;61.31;99454.84;4204534;34;34258;-95
2021/05/22 11:46:16;;;;;;;0.70;0.50;;;;;;;15.61;61.04;99464.22;4200281;34;33895;-91
2021/05/22 11:48:52;;;;;;;1.00;0.50;;;;;;;15.95;59.58;99459.22;4208492;34;33568;-92
2021/05/22 11:51:32;;;;;;;0.65;0.30;;;;;;;15.91;59.61;99459.91;4212417;34;34060;-91
2021/05/22 11:54:14;;;;;;;0.60;0.30;;;;;;;16.06;59.77;99458.47;4201733;34;36570;-91
2021/05/22 11:56:55;;;;;;;0.45;0.22;;;;;;;16.35;57.77;99466.87;4212745;34;33842;-96
2021/05/22 11:59:38;;;;;;;0.75;0.30;;;;;;;16.41;57.71;99471.38;4202743;34;33929;-90
2021/05/22 12:02:11;;;;;;;1.77;0.43;;;;;;;16.39;59.09;99472.69;4192921;34;33444;-90
2021/05/22 12:04:51;;;;;;;0.40;0.30;;;;;;;16.44;56.39;99469.25;4202242;34;33618;-91
2021/05/22 12:07:51;;;;;;;0.75;0.37;;;;;;;16.96;56.02;99477.72;4203859;34;34155;-95
2021/05/22 12:10:44;;;;;;;0.40;0.25;;;;;;;17.09;56.19;99482.91;4204002;34;36310;-96
2021/05/22 12:13:57;;;;;;;0.95;0.30;;;;;;;17.22;54.72;99470.13;4226452;33;33232;-94
2021/05/22 12:20:55;;;;;;;0.57;0.30;;;;;;;16.73;54.69;99478.47;4239148;33;20113;-95
2021/05/22 12:24:59;;;;;;;2.83;0.30;;;;;;;16.95;56.18;99467.84;4358474;28;33295;-95
2021/05/22 12:28:17;;;;;;;1.45;0.50;;;;;;;17.70;54.82;99471.72;4465629;28;34067;-96
2021/05/22 12:31:39;;;;;;;4.00;0.40;;;;;;;17.67;52.17;99469.47;4249699;28;20177;-95
2021/05/22 12:34:32;;;;;;;2.55;0.20;;;;;;;17.83;51.91;99479.66;4367281;28;31399;-93
2021/05/22 12:37:40;;;;;;;1.58;0.70;;;;;;;18.15;50.04;99476.50;4263126;28;34245;-91
2021/05/22 12:40:17;;;;;;;1.02;0.40;;;;;;;17.78;50.61;99474.09;4335030;28;32971;-93
2021/05/22 12:42:52;;;;;;;0.50;0.43;;;;;;;18.09;51.72;99477.47;4199031;28;33241;-94
2021/05/22 12:45:35;;;;;;;0.52;0.40;;;;;;;18.11;52.30;99477.22;4276370;28;32203;-96
2021/05/22 12:51:29;;;;;;;2.35;0.80;;;;;;;18.32;49.99;99472.97;4387744;28;32598;-96
2021/05/22 12:54:29;;;;;;;1.05;0.50;;;;;;;17.19;51.32;99473.34;4175971;28;3288131;-95
2021/05/22 12:57:14;;;;;;;0.68;0.50;;;;;;;17.13;54.53;99477.84;4377645;28;34208;-95
2021/05/22 12:59:53;;;;;;;1.45;0.50;;;;;;;17.65;54.45;99469.72;4349874;28;34783;-93
2021/05/22 13:02:39;;;;;;;0.57;0.30;;;;;;;18.25;50.10;99467.66;4348404;28;33972;31
2021/05/22 13:05:42;;;;;;;0.68;0.50;;;;;;;17.49;50.78;99469.63;4493492;28;34204;-93
2021/05/22 13:08:38;;;;;;;1.02;0.52;;;;;;;17.51;52.19;99464.75;4338620;28;32068;31
2021/05/22 13:11:16;;;;;;;1.27;0.52;;;;;;;18.25;50.71;99466.81;4241720;28;32865;-94
2021/05/22 13:14:04;;;;;;;1.62;0.73;;;;;;;18.14;50.32;99474.84;4409666;28;34331;31
2021/05/22 13:17:03;;;;;;;0.93;0.30;;;;;;;18.53;49.30;99477.75;4467831;28;34062;-93
2021/05/22 13:20:01;;;;;;;5.78;0.85;;;;;;;18.28;52.21;99471.81;4291688;28;31631;-96
2021/05/22 13:26:33;;;;;;;1.90;0.70;;;;;;;18.02;52.60;99476.78;4304254;28;34505;-93
2021/05/22 13:32:46;;;;;;;1.55;0.57;;;;;;;18.53;49.67;99477.75;4208514;28;33789;-95
2021/05/22 13:35:35;;;;;;;0.57;0.40;;;;;;;18.45;50.31;99483.63;4324185;28;33657;31
2021/05/22 13:38:09;;;;;;;0.80;0.52;;;;;;;18.47;48.57;99481.50;4324166;28;35702;-90
2021/05/22 13:40:44;;;;;;;1.50;0.50;;;;;;;18.69;47.59;99494.44;4271739;33;33111;-96
2021/05/22 13:43:18;;;;;;;1.12;0.50;;;;;;;18.95;47.79;99492.16;4256939;33;33663;-92
2021/05/22 13:45:52;;;;;;;1.23;0.57;;;;;;;19.39;46.79;99487.66;4256896;33;34658;-96
2021/05/22 13:48:25;;;;;;;1.17;0.60;;;;;;;19.72;46.93;99479.62;4232728;33;33369;-93
2021/05/22 13:55:04;;;;;;;1.58;0.60;;;;;;;21.17;44.09;99472.59;4397309;28;20121;-96
2021/05/22 14:01:41;;;;;;;2.58;0.40;;;;;;;23.58;37.34;99476.25;4318877;28;35804;-93
2021/05/22 14:07:18;;;;;;;1.58;0.43;;;;;;;23.95;37.19;99494.34;4596919;28;30320;-96
2021/05/22 14:10:17;;;;;;;1.15;0.45;;;;;;;23.63;37.72;99498.28;4422915;28;34096;-93
2021/05/22 14:13:23;;;;;;;0.90;0.50;;;;;;;23.72;36.78;99488.31;4533182;28;33948;31
2021/05/22 14:15:59;;;;;;;2.15;0.82;;;;;;;23.06;35.97;99478.22;4260902;33;32193;-92
2021/05/22 14:19:23;;;;;;;1.02;0.37;;;;;;;22.97;36.48;99471.62;4378831;28;33801;-92
2021/05/22 14:22:24;;;;;;;1.37;0.50;;;;;;;22.69;37.99;99463.59;4614353;28;34714;-92
2021/05/22 14:25:05;;;;;;;1.73;0.73;;;;;;;21.83;39.34;99473.28;4360109;28;33380;-93
2021/05/22 14:27:42;;;;;;;1.23;0.30;;;;;;;21.38;41.64;99485.66;4334540;28;33591;-92
2021/05/22 14:30:44;;;;;;;0.85;0.50;;;;;;;21.30;39.88;99487.81;4281908;28;33271;-93
2021/05/22 14:33:26;;;;;;;1.10;0.60;;;;;;;21.51;39.90;99483.31;4450273;28;34589;-92
2021/05/22 14:36:36;;;;;;;2.72;0.60;;;;;;;21.41;41.30;99485.16;4411390;28;34035;-93
2021/05/22 14:39:10;;;;;;;0.73;0.50;;;;;;;21.51;40.85;99487.97;4294221;28;33441;-93
2021/05/22 14:41:43;;;;;;;1.17;0.40;;;;;;;21.43;41.06;99499.44;4303747;28;34388;-96
2021/05/22 14:44:46;;;;;;;;;;;;;;;21.45;41.15;99497.25;4455865;28;34822;-93
2021/05/22 14:47:20;;;;;;;0.55;0.37;;;;;;;21.52;38.42;99500.63;4365842;28;32641;-92
2021/05/22 14:49:53;;;;;;;0.57;0.40;;;;;;;21.32;39.42;99499.38;4402227;28;33606;-91
2021/05/22 14:52:40;;;;;;;0.40;0.22;;;;;;;21.16;40.29;99486.62;4088394;28;32888;-94
2021/05/22 14:58:23;;;;;;;1.85;0.50;;;;;;;21.14;41.34;99494.31;4280744;28;35432;-95
2021/05/22 15:00:56;;;;;;;0.40;0.40;;;;;;;21.23;38.71;99487.22;4238755;33;34088;-92
2021/05/22 15:03:30;;;;;;;1.25;0.40;;;;;;;21.32;40.30;99476.56;4228917;33;35317;-95
2021/05/22 15:06:22;;;;;;;0.88;0.32;;;;;;;21.14;40.60;99473.13;4209823;33;32847;-93
2021/05/22 15:09:20;;;;;;;1.40;0.50;;;;;;;21.40;42.38;99469.75;4358330;28;33460;-94
2021/05/22 15:11:54;;;;;;;0.40;0.40;;;;;;;20.49;43.83;99468.72;4269933;33;33658;-95
2021/05/22 15:14:31;;;;;;;0.40;0.30;;;;;;;21.39;41.17;99466.13;4250228;33;33873;-93
2021/05/22 15:20:49;;;;;;;0.85;0.40;;;;;;;21.26;42.13;99464.69;4390646;28;20101;-92
2021/05/22 15:23:38;;;;;;;1.75;0.60;;;;;;;21.65;40.91;99469.91;4451688;28;31553;31
2021/05/22 15:26:14;;;;;;;1.30;0.30;;;;;;;21.93;39.42;99461.50;4225459;33;32543;-96
2021/05/22 15:32:21;;;;;;;0.90;0.47;;;;;;;22.13;38.88;99471.75;4445925;28;35272;-93
2021/05/22 15:35:17;;;;;;;2.08;0.50;;;;;;;22.41;37.46;99473.25;4347843;28;32372;-95
2021/05/22 15:37:54;;;;;;;1.30;0.40;;;;;;;22.53;38.79;99462.78;4317388;28;35231;-91
2021/05/22 16:01:03;;;;;;;2.25;0.45;;;;;;;20.88;42.03;99452.87;4275523;28;20764;-94
2021/05/22 16:06:35;;;;;;;0.85;0.50;;;;;;;20.18;44.87;99446.44;4251054;33;33773;-94
2021/05/22 16:09:33;;;;;;;1.27;0.50;;;;;;;20.27;44.80;99442.97;4264060;33;32697;-93
2021/05/22 16:12:08;;;;;;;0.90;0.37;;;;;;;20.17;44.53;99440.12;4251159;28;34001;-92
2021/05/22 16:14:41;;;;;;;0.80;0.50;;;;;;;19.74;45.53;99436.31;4232619;33;33895;-96
2021/05/22 16:17:17;;;;;;;1.95;0.45;;;;;;;19.75;47.51;99435.25;4231230;33;34291;-96
2021/05/22 16:20:27;;;;;;;0.70;0.40;;;;;;;19.60;46.95;99426.84;4237309;33;37276;-95
2021/05/22 16:23:00;;;;;;;1.92;0.47;;;;;;;19.61;47.37;99428.47;4232230;33;35231;-96
2021/05/22 16:25:55;;;;;;;1.12;0.60;;;;;;;19.54;49.53;99429.50;4238359;33;31975;-95
2021/05/22 16:28:28;;;;;;;1.52;0.47;;;;;;;19.62;48.29;99430.13;4216486;34;32924;-95
2021/05/22 16:31:14;;;;;;;1.48;0.65;;;;;;;19.27;49.08;99429.41;4228068;33;34748;-93
2021/05/22 16:33:47;;;;;;;1.08;0.43;;;;;;;19.32;50.71;99426.72;4228523;33;34352;-95
2021/05/22 16:36:21;;;;;;;2.60;0.60;;;;;;;19.43;48.49;99430.44;4217594;33;33371;-94
2021/05/22 16:38:55;;;;;;;0.80;0.50;;;;;;;19.33;51.40;99422.09;4218389;33;32890;-93
2021/05/22 16:41:40;;;;;;;0.43;0.43;;;;;;;19.23;51.45;99426.31;4205001;34;34222;-93
2021/05/22 16:44:14;;;;;;;0.55;0.50;;;;;;;19.50;48.47;99419.28;4207577;34;34247;-94